Time,TemperatureF,DewpointF,PressureIn,WindDirection,WindDirectionDegrees,WindSpeedMPH,WindSpeedGustMPH,Humidity,HourlyPrecipIn,Conditions,Clouds,dailyrainin,SoftwareType,DateUTC
2013-07-12 00:01:00,57.3,54.4,30.13,NE,44,0.0,0.0,90,0.00,,---,0.00,VWS V14.01,2013-07-12 04:01:00,
2013-07-12 00:06:00,57.2,54.3,30.13,NE,44,0.0,0.0,90,0.00,,---,0.00,VWS V14.01,2013-07-12 04:06:00,
2013-07-12 00:11:00,57.0,54.4,30.13,NE,44,0.0,0.0,91,0.00,,---,0.00,VWS V14.01,2013-07-12 04:11:00,
2013-07-12 00:16:00,56.9,54.6,30.13,NE,44,0.0,0.0,92,0.00,,---,0.00,VWS V14.01,2013-07-12 04:16:00,
2013-07-12 00:21:00,56.9,54.6,30.13,NE,44,0.0,0.0,92,0.00,,---,0.00,VWS V14.01,2013-07-12 04:21:00,
2013-07-12 00:26:00,56.6,54.0,30.13,NE,44,0.0,0.0,91,0.00,,---,0.00,VWS V14.01,2013-07-12 04:26:00,
2013-07-12 00:32:00,56.3,53.7,30.13,NE,44,0.0,0.0,91,0.00,,---,0.00,VWS V14.01,2013-07-12 04:32:00,
2013-07-12 00:37:00,56.2,53.9,30.13,NE,44,0.0,0.0,92,0.00,,---,0.00,VWS V14.01,2013-07-12 04:37:00,
2013-07-12 00:42:00,56.0,53.7,30.13,NE,44,0.0,0.0,92,0.00,,---,0.00,VWS V14.01,2013-07-12 04:42:00,
2013-07-12 00:47:00,55.7,53.4,30.13,NE,44,0.0,0.0,92,0.00,,---,0.00,VWS V14.01,2013-07-12 04:47:00,
2013-07-12 00:52:00,55.6,53.3,30.14,NE,44,0.0,0.0,92,0.00,,---,0.00,VWS V14.01,2013-07-12 04:52:00,
2013-07-12 00:57:00,55.4,53.1,30.14,NE,44,0.0,0.0,92,0.00,,---,0.00,VWS V14.01,2013-07-12 04:57:00,
2013-07-12 01:02:00,55.3,53.0,30.14,NE,44,0.0,0.0,92,0.00,,---,0.00,VWS V14.01,2013-07-12 05:02:00,
2013-07-12 01:07:00,55.3,53.0,30.14,NE,44,0.0,0.0,92,0.00,,---,0.00,VWS V14.01,2013-07-12 05:07:00,
2013-07-12 01:12:00,55.1,53.1,30.14,NE,44,0.0,0.0,93,0.00,,---,0.00,VWS V14.01,2013-07-12 05:12:00,
2013-07-12 01:17:00,55.0,53.0,30.14,NE,44,0.0,0.0,93,0.00,,---,0.00,VWS V14.01,2013-07-12 05:17:00,
2013-07-12 01:22:00,55.0,53.0,30.14,NE,44,0.0,0.0,93,0.00,,---,0.00,VWS V14.01,2013-07-12 05:22:00,
2013-07-12 01:27:00,54.8,53.1,30.14,NE,44,0.0,0.0,94,0.00,,---,0.00,VWS V14.01,2013-07-12 05:27:00,
2013-07-12 01:32:00,54.7,52.7,30.14,NE,44,0.0,0.0,93,0.00,,---,0.00,VWS V14.01,2013-07-12 05:32:00,
2013-07-12 01:37:00,54.2,52.2,30.14,NE,44,0.0,0.0,93,0.00,,---,0.00,VWS V14.01,2013-07-12 05:37:00,
2013-07-12 01:42:00,54.2,52.5,30.14,NE,44,0.0,0.0,94,0.00,,---,0.00,VWS V14.01,2013-07-12 05:42:00,
2013-07-12 01:47:00,54.2,52.5,30.14,NE,44,0.0,0.0,94,0.00,,---,0.00,VWS V14.01,2013-07-12 05:47:00,
2013-07-12 01:52:00,54.1,52.4,30.14,NE,44,0.0,0.0,94,0.00,,---,0.00,VWS V14.01,2013-07-12 05:52:00,
2013-07-12 01:57:00,53.9,52.2,30.14,NE,44,0.0,0.0,94,0.00,,---,0.00,VWS V14.01,2013-07-12 05:57:00,
2013-07-12 02:02:00,53.8,52.1,30.15,NE,44,0.0,0.0,94,0.00,,---,0.00,VWS V14.01,2013-07-12 06:02:00,
2013-07-12 02:07:00,53.8,52.4,30.15,NE,44,0.0,0.0,95,0.00,,---,0.00,VWS V14.01,2013-07-12 06:07:00,
2013-07-12 02:12:00,53.9,52.8,30.15,NE,44,0.0,0.0,96,0.00,,---,0.00,VWS V14.01,2013-07-12 06:12:00,
2013-07-12 02:17:00,53.8,52.4,30.15,NE,44,0.0,0.0,95,0.00,,---,0.00,VWS V14.01,2013-07-12 06:17:00,
2013-07-12 02:22:00,53.5,52.1,30.15,NE,44,0.0,0.0,95,0.00,,---,0.00,VWS V14.01,2013-07-12 06:22:00,
2013-07-12 02:27:00,53.3,51.9,30.15,NE,44,0.0,0.0,95,0.00,,---,0.00,VWS V14.01,2013-07-12 06:27:00,
2013-07-12 02:32:00,53.2,52.1,30.16,NE,44,0.0,0.0,96,0.00,,---,0.00,VWS V14.01,2013-07-12 06:32:00,
2013-07-12 02:37:00,53.1,51.7,30.16,NE,44,0.0,0.0,95,0.00,,---,0.00,VWS V14.01,2013-07-12 06:37:00,
2013-07-12 02:42:00,52.9,51.5,30.16,NE,44,0.0,0.0,95,0.00,,---,0.00,VWS V14.01,2013-07-12 06:42:00,
2013-07-12 02:47:00,52.8,51.4,30.16,NE,44,0.0,0.0,95,0.00,,---,0.00,VWS V14.01,2013-07-12 06:47:00,
2013-07-12 02:52:00,52.6,51.2,30.16,NE,44,0.0,0.0,95,0.00,,---,0.00,VWS V14.01,2013-07-12 06:52:00,
2013-07-12 02:57:00,52.5,51.4,30.16,NE,44,0.0,0.0,96,0.00,,---,0.00,VWS V14.01,2013-07-12 06:57:00,
2013-07-12 03:02:00,52.5,51.4,30.16,NE,44,0.0,0.0,96,0.00,,---,0.00,VWS V14.01,2013-07-12 07:02:00,
2013-07-12 03:07:00,52.5,51.4,30.16,NE,44,0.0,0.0,96,0.00,,---,0.00,VWS V14.01,2013-07-12 07:07:00,
2013-07-12 03:12:00,52.5,51.4,30.16,NE,44,0.0,0.0,96,0.00,,---,0.00,VWS V14.01,2013-07-12 07:12:00,
2013-07-12 03:17:00,52.5,51.4,30.16,NE,44,0.0,0.0,96,0.00,,---,0.00,VWS V14.01,2013-07-12 07:17:00,
2013-07-12 03:22:00,52.3,51.2,30.17,NE,44,0.0,0.0,96,0.00,,---,0.00,VWS V14.01,2013-07-12 07:22:00,
2013-07-12 03:27:00,52.3,51.2,30.17,NE,44,0.0,0.0,96,0.00,,---,0.00,VWS V14.01,2013-07-12 07:27:00,
2013-07-12 03:32:00,52.2,51.1,30.17,NE,44,0.0,0.0,96,0.00,,---,0.00,VWS V14.01,2013-07-12 07:32:00,
2013-07-12 03:37:00,52.2,51.1,30.17,NE,44,0.0,0.0,96,0.00,,---,0.00,VWS V14.01,2013-07-12 07:37:00,
2013-07-12 03:42:00,52.2,51.4,30.17,NE,44,0.0,0.0,97,0.00,,---,0.00,VWS V14.01,2013-07-12 07:42:00,
2013-07-12 03:48:00,52.2,51.4,30.17,NE,44,0.0,0.0,97,0.00,,---,0.00,VWS V14.01,2013-07-12 07:48:00,
2013-07-12 03:52:00,52.2,51.4,30.17,NE,44,0.0,0.0,97,0.00,,---,0.00,VWS V14.01,2013-07-12 07:52:00,
2013-07-12 03:58:00,52.0,51.2,30.17,NE,44,0.0,0.0,97,0.00,,---,0.00,VWS V14.01,2013-07-12 07:58:00,
2013-07-12 04:03:00,51.9,50.8,30.17,NE,44,0.0,0.0,96,0.00,,---,0.00,VWS V14.01,2013-07-12 08:03:00,
2013-07-12 04:08:00,51.7,50.6,30.17,NE,44,0.0,0.0,96,0.00,,---,0.00,VWS V14.01,2013-07-12 08:08:00,
2013-07-12 04:13:00,51.6,50.8,30.17,NE,44,0.0,0.0,97,0.00,,---,0.00,VWS V14.01,2013-07-12 08:13:00,
2013-07-12 04:18:00,51.7,50.9,30.17,SW,221,0.0,0.0,97,0.00,,---,0.00,VWS V14.01,2013-07-12 08:18:00,
2013-07-12 04:23:00,51.7,50.9,30.17,SW,217,0.0,0.0,97,0.00,,---,0.00,VWS V14.01,2013-07-12 08:23:00,
2013-07-12 04:28:00,52.0,51.2,30.17,SSW,197,0.0,0.0,97,0.00,,---,0.00,VWS V14.01,2013-07-12 08:28:00,
2013-07-12 04:33:00,51.9,51.1,30.17,South,190,0.0,0.0,97,0.00,,---,0.00,VWS V14.01,2013-07-12 08:33:00,
2013-07-12 04:38:00,51.7,50.9,30.17,South,190,0.0,0.0,97,0.00,,---,0.00,VWS V14.01,2013-07-12 08:38:00,
2013-07-12 04:43:00,51.7,50.9,30.17,South,190,0.0,0.0,97,0.00,,---,0.00,VWS V14.01,2013-07-12 08:43:00,
2013-07-12 04:48:00,51.6,50.8,30.16,South,190,0.0,0.0,97,0.00,,---,0.00,VWS V14.01,2013-07-12 08:48:00,
2013-07-12 04:53:00,51.4,50.6,30.16,South,190,0.0,0.0,97,0.00,,---,0.00,VWS V14.01,2013-07-12 08:53:00,
2013-07-12 04:58:00,51.4,50.6,30.16,South,190,0.0,0.0,97,0.00,,---,0.00,VWS V14.01,2013-07-12 08:58:00,
2013-07-12 05:03:00,51.4,50.6,30.16,South,190,0.0,0.0,97,0.00,,---,0.00,VWS V14.01,2013-07-12 09:03:00,
2013-07-12 05:08:00,51.4,50.6,30.17,South,190,0.0,0.0,97,0.00,,---,0.00,VWS V14.01,2013-07-12 09:08:00,
2013-07-12 05:13:00,51.3,50.5,30.17,South,190,0.0,0.0,97,0.00,,---,0.00,VWS V14.01,2013-07-12 09:13:00,
2013-07-12 05:18:00,51.3,50.5,30.17,South,190,0.0,0.0,97,0.00,,---,0.00,VWS V14.01,2013-07-12 09:18:00,
2013-07-12 05:23:00,51.4,50.6,30.17,SSW,197,0.0,0.0,97,0.00,,---,0.00,VWS V14.01,2013-07-12 09:23:00,
2013-07-12 05:28:00,51.4,50.6,30.17,SSW,199,0.0,0.0,97,0.00,,---,0.00,VWS V14.01,2013-07-12 09:28:00,
2013-07-12 05:33:00,51.4,50.9,30.18,SSW,199,0.0,0.0,98,0.00,,---,0.00,VWS V14.01,2013-07-12 09:33:00,
2013-07-12 05:38:00,51.4,50.9,30.18,SSW,199,0.0,0.0,98,0.00,,---,0.00,VWS V14.01,2013-07-12 09:38:00,
2013-07-12 05:43:00,51.3,50.5,30.18,SSW,199,0.0,0.0,97,0.00,,---,0.00,VWS V14.01,2013-07-12 09:43:00,
2013-07-12 05:48:00,51.4,50.9,30.18,SSW,208,0.0,0.0,98,0.00,,---,0.00,VWS V14.01,2013-07-12 09:48:00,
2013-07-12 05:53:00,51.4,50.9,30.18,SSW,208,0.0,0.0,98,0.00,,---,0.00,VWS V14.01,2013-07-12 09:53:00,
2013-07-12 05:58:00,51.3,50.8,30.18,SSW,208,0.0,0.0,98,0.00,,---,0.00,VWS V14.01,2013-07-12 09:58:00,
2013-07-12 06:03:00,51.1,50.3,30.18,SSW,208,0.0,0.0,97,0.00,,---,0.00,VWS V14.01,2013-07-12 10:03:00,
2013-07-12 06:08:00,51.1,50.3,30.19,SSW,208,0.0,0.0,97,0.00,,---,0.00,VWS V14.01,2013-07-12 10:08:00,
2013-07-12 06:13:00,51.0,50.2,30.19,SSW,208,0.0,0.0,97,0.00,,---,0.00,VWS V14.01,2013-07-12 10:13:00,
2013-07-12 06:18:00,51.0,50.5,30.19,SSW,208,0.0,0.0,98,0.00,,---,0.00,VWS V14.01,2013-07-12 10:18:00,
2013-07-12 06:23:00,51.1,50.6,30.19,SSW,208,0.0,0.0,98,0.00,,---,0.00,VWS V14.01,2013-07-12 10:23:00,
2013-07-12 06:28:00,51.3,50.8,30.19,SSW,208,0.0,0.0,98,0.00,,---,0.00,VWS V14.01,2013-07-12 10:28:00,
2013-07-12 06:33:00,51.3,50.8,30.20,SSW,208,0.0,0.0,98,0.00,,---,0.00,VWS V14.01,2013-07-12 10:33:00,
2013-07-12 06:38:00,51.4,50.9,30.20,SSW,208,0.0,0.0,98,0.00,,---,0.00,VWS V14.01,2013-07-12 10:38:00,
2013-07-12 06:43:00,51.4,50.9,30.20,SSW,208,0.0,0.0,98,0.00,,---,0.00,VWS V14.01,2013-07-12 10:43:00,
2013-07-12 06:48:00,51.6,51.1,30.20,SSW,208,0.0,0.0,98,0.00,,---,0.00,VWS V14.01,2013-07-12 10:48:00,
2013-07-12 06:53:00,51.7,51.2,30.20,SSW,208,0.0,0.0,98,0.00,,---,0.00,VWS V14.01,2013-07-12 10:53:00,
2013-07-12 06:58:00,51.9,51.4,30.20,SSW,208,0.0,0.0,98,0.00,,---,0.00,VWS V14.01,2013-07-12 10:58:00,
2013-07-12 07:03:00,51.9,51.4,30.20,SSW,208,0.0,0.0,98,0.00,,---,0.00,VWS V14.01,2013-07-12 11:03:00,
2013-07-12 07:08:00,51.9,51.4,30.20,SSW,208,0.0,0.0,98,0.00,,---,0.00,VWS V14.01,2013-07-12 11:08:00,
2013-07-12 07:14:00,52.2,51.7,30.20,SSW,208,0.0,0.0,98,0.00,,---,0.00,VWS V14.01,2013-07-12 11:14:00,
2013-07-12 07:19:00,52.8,52.5,30.19,SSW,208,0.0,0.0,99,0.00,,---,0.00,VWS V14.01,2013-07-12 11:19:00,
2013-07-12 07:24:00,53.8,53.5,30.20,SSW,207,0.0,0.0,99,0.00,,---,0.00,VWS V14.01,2013-07-12 11:24:00,
2013-07-12 07:29:00,54.7,54.4,30.19,SSW,207,0.0,0.0,99,0.00,,---,0.00,VWS V14.01,2013-07-12 11:29:00,
2013-07-12 07:34:00,55.4,55.1,30.19,SSW,207,0.0,0.0,99,0.00,,---,0.00,VWS V14.01,2013-07-12 11:34:00,
2013-07-12 07:39:00,55.7,55.4,30.19,SSW,207,0.0,0.0,99,0.00,,---,0.00,VWS V14.01,2013-07-12 11:39:00,
2013-07-12 07:44:00,56.0,55.7,30.20,SSW,201,0.0,0.0,99,0.00,,---,0.00,VWS V14.01,2013-07-12 11:44:00,
2013-07-12 07:49:00,56.5,56.2,30.20,South,190,0.0,0.0,99,0.00,,---,0.00,VWS V14.01,2013-07-12 11:49:00,
2013-07-12 07:54:00,56.9,56.6,30.20,SE,144,0.0,0.0,99,0.00,,---,0.00,VWS V14.01,2013-07-12 11:54:00,
2013-07-12 07:59:00,57.5,57.2,30.20,SE,144,0.0,0.0,99,0.00,,---,0.00,VWS V14.01,2013-07-12 11:59:00,
2013-07-12 08:04:00,58.3,57.7,30.20,SE,145,0.0,0.0,98,0.00,,---,0.00,VWS V14.01,2013-07-12 12:04:00,
2013-07-12 08:09:00,59.0,57.6,30.20,SSE,151,0.0,0.0,95,0.00,,---,0.00,VWS V14.01,2013-07-12 12:09:00,
2013-07-12 08:14:00,60.1,57.2,30.20,SSE,151,0.0,0.0,90,0.00,,---,0.00,VWS V14.01,2013-07-12 12:14:00,
2013-07-12 08:19:00,61.0,56.8,30.21,SSE,151,0.0,0.0,86,0.00,,---,0.00,VWS V14.01,2013-07-12 12:19:00,
2013-07-12 08:24:00,61.8,56.6,30.21,SSE,151,0.0,0.0,83,0.00,,---,0.00,VWS V14.01,2013-07-12 12:24:00,
2013-07-12 08:29:00,62.4,56.8,30.21,SSE,150,0.0,0.0,82,0.00,,---,0.00,VWS V14.01,2013-07-12 12:29:00,
2013-07-12 08:34:00,62.9,56.3,30.21,SSE,150,0.0,0.0,79,0.00,,---,0.00,VWS V14.01,2013-07-12 12:34:00,
2013-07-12 08:39:00,63.5,56.9,30.21,SSE,150,0.0,0.0,79,0.00,,---,0.00,VWS V14.01,2013-07-12 12:39:00,
2013-07-12 08:44:00,64.3,56.6,30.21,SSE,150,0.0,0.0,76,0.00,,---,0.00,VWS V14.01,2013-07-12 12:44:00,
2013-07-12 08:49:00,64.7,57.3,30.21,South,184,0.0,0.0,77,0.00,,---,0.00,VWS V14.01,2013-07-12 12:49:00,
2013-07-12 08:54:00,65.2,57.8,30.21,South,184,0.0,0.0,77,0.00,,---,0.00,VWS V14.01,2013-07-12 12:54:00,
2013-07-12 08:59:00,66.0,56.3,30.21,SSW,196,0.0,0.0,71,0.00,,---,0.00,VWS V14.01,2013-07-12 12:59:00,
2013-07-12 09:04:00,66.3,56.6,30.22,SSW,196,0.0,0.0,71,0.00,,---,0.00,VWS V14.01,2013-07-12 13:04:00,
2013-07-12 09:09:00,66.3,56.2,30.22,SSW,202,0.0,0.0,70,0.00,,---,0.00,VWS V14.01,2013-07-12 13:09:00,
2013-07-12 09:14:00,66.9,56.4,30.22,SSW,205,0.0,0.0,69,0.00,,---,0.00,VWS V14.01,2013-07-12 13:14:00,
2013-07-12 09:19:00,67.4,56.1,30.22,South,180,0.0,0.0,67,0.00,,---,0.00,VWS V14.01,2013-07-12 13:19:00,
2013-07-12 09:24:00,67.9,55.7,30.22,SSW,203,0.0,0.0,65,0.00,,---,0.00,VWS V14.01,2013-07-12 13:24:00,
2013-07-12 09:29:00,67.9,56.5,30.22,SSW,203,0.0,0.0,67,0.00,,---,0.00,VWS V14.01,2013-07-12 13:29:00,
2013-07-12 09:34:00,68.3,56.5,30.22,SSW,203,0.0,0.0,66,0.00,,---,0.00,VWS V14.01,2013-07-12 13:34:00,
2013-07-12 09:39:00,69.1,56.4,30.22,SSW,207,0.0,0.0,64,0.00,,---,0.00,VWS V14.01,2013-07-12 13:39:00,
2013-07-12 09:44:00,69.6,56.5,30.22,SSW,211,0.0,0.0,63,0.00,,---,0.00,VWS V14.01,2013-07-12 13:44:00,
2013-07-12 09:49:00,69.9,56.3,30.22,SSW,211,0.0,0.0,62,0.00,,---,0.00,VWS V14.01,2013-07-12 13:49:00,
2013-07-12 09:54:00,70.3,57.6,30.22,SW,230,0.0,0.0,64,0.00,,---,0.00,VWS V14.01,2013-07-12 13:54:00,
2013-07-12 09:59:00,70.4,55.4,30.22,SW,220,0.0,0.0,59,0.00,,---,0.00,VWS V14.01,2013-07-12 13:59:00,
2013-07-12 10:04:00,70.6,56.5,30.22,SW,217,0.0,0.0,61,0.00,,---,0.00,VWS V14.01,2013-07-12 14:04:00,
2013-07-12 10:09:00,70.9,55.4,30.22,SSE,168,0.0,0.0,58,0.00,,---,0.00,VWS V14.01,2013-07-12 14:09:00,
2013-07-12 10:14:00,71.6,56.1,30.21,SSE,167,0.0,0.0,58,0.00,,---,0.00,VWS V14.01,2013-07-12 14:14:00,
2013-07-12 10:19:00,71.8,56.2,30.21,South,172,0.0,0.0,58,0.00,,---,0.00,VWS V14.01,2013-07-12 14:19:00,
2013-07-12 10:24:00,72.1,56.5,30.21,SE,132,0.0,0.0,58,0.00,,---,0.00,VWS V14.01,2013-07-12 14:24:00,
2013-07-12 10:29:00,72.5,56.4,30.21,South,189,0.0,0.0,57,0.00,,---,0.00,VWS V14.01,2013-07-12 14:29:00,
2013-07-12 10:35:00,72.5,56.9,30.21,SSE,153,0.0,0.0,58,0.00,,---,0.00,VWS V14.01,2013-07-12 14:35:00,
2013-07-12 10:40:00,72.8,56.2,30.21,SSW,209,0.0,0.0,56,0.00,,---,0.00,VWS V14.01,2013-07-12 14:40:00,
2013-07-12 10:45:00,73.0,56.4,30.21,SSE,164,0.0,0.0,56,0.00,,---,0.00,VWS V14.01,2013-07-12 14:45:00,
2013-07-12 10:50:00,73.5,57.3,30.21,SE,141,0.0,0.0,57,0.00,,---,0.00,VWS V14.01,2013-07-12 14:50:00,
2013-07-12 10:55:00,73.9,56.2,30.21,SW,230,0.0,0.0,54,0.00,,---,0.00,VWS V14.01,2013-07-12 14:55:00,
2013-07-12 11:00:00,73.9,55.7,30.21,SE,144,0.0,0.0,53,0.00,,---,0.00,VWS V14.01,2013-07-12 15:00:00,
2013-07-12 11:05:00,74.0,55.8,30.20,SE,138,0.0,0.0,53,0.00,,---,0.00,VWS V14.01,2013-07-12 15:05:00,
2013-07-12 11:10:00,74.0,56.8,30.20,SE,145,0.0,0.0,55,0.00,,---,0.00,VWS V14.01,2013-07-12 15:10:00,
2013-07-12 11:15:00,74.4,55.7,30.21,SSW,194,0.0,0.0,52,0.00,,---,0.00,VWS V14.01,2013-07-12 15:15:00,
2013-07-12 11:20:00,74.9,54.5,30.20,WSW,240,0.0,0.0,49,0.00,,---,0.00,VWS V14.01,2013-07-12 15:20:00,
2013-07-12 11:25:00,75.1,54.1,30.20,SSW,211,0.0,0.0,48,0.00,,---,0.00,VWS V14.01,2013-07-12 15:25:00,
2013-07-12 11:30:00,75.1,55.2,30.20,SSW,192,0.0,0.0,50,0.00,,---,0.00,VWS V14.01,2013-07-12 15:30:00,
2013-07-12 11:35:00,75.3,57.0,30.20,ESE,107,0.0,0.0,53,0.00,,---,0.00,VWS V14.01,2013-07-12 15:35:00,
2013-07-12 11:40:00,76.0,56.6,30.20,SE,134,0.0,0.0,51,0.00,,---,0.00,VWS V14.01,2013-07-12 15:40:00,
2013-07-12 11:45:00,76.5,56.5,30.20,South,181,0.0,0.0,50,0.00,,---,0.00,VWS V14.01,2013-07-12 15:45:00,
2013-07-12 11:50:00,76.7,55.0,30.20,SE,137,0.0,0.0,47,0.00,,---,0.00,VWS V14.01,2013-07-12 15:50:00,
2013-07-12 11:55:00,77.0,55.2,30.20,South,184,0.0,0.0,47,0.00,,---,0.00,VWS V14.01,2013-07-12 15:55:00,
2013-07-12 12:00:00,77.0,54.1,30.20,SE,132,0.0,0.0,45,0.00,,---,0.00,VWS V14.01,2013-07-12 16:00:00,
2013-07-12 12:05:00,77.2,56.0,30.20,SE,132,0.0,0.0,48,0.00,,---,0.00,VWS V14.01,2013-07-12 16:05:00,
2013-07-12 12:10:00,77.6,54.0,30.20,SSE,164,0.0,0.0,44,0.00,,---,0.00,VWS V14.01,2013-07-12 16:10:00,
2013-07-12 12:15:00,77.7,50.8,30.20,WNW,286,0.0,0.0,39,0.00,,---,0.00,VWS V14.01,2013-07-12 16:15:00,
2013-07-12 12:20:00,77.2,50.3,30.20,WNW,300,0.0,0.0,39,0.00,,---,0.00,VWS V14.01,2013-07-12 16:20:00,
2013-07-12 12:25:00,77.4,51.2,30.20,SSW,210,0.0,0.0,40,0.00,,---,0.00,VWS V14.01,2013-07-12 16:25:00,
2013-07-12 12:30:00,77.9,50.3,30.19,South,188,0.0,0.0,38,0.00,,---,0.00,VWS V14.01,2013-07-12 16:30:00,
2013-07-12 12:35:00,78.1,50.5,30.19,SW,223,0.0,0.0,38,0.00,,---,0.00,VWS V14.01,2013-07-12 16:35:00,
2013-07-12 12:40:00,78.1,49.7,30.20,SW,218,0.0,0.0,37,0.00,,---,0.00,VWS V14.01,2013-07-12 16:40:00,
2013-07-12 12:45:00,78.6,51.6,30.20,WNW,296,0.0,0.0,39,0.00,,---,0.00,VWS V14.01,2013-07-12 16:45:00,
2013-07-12 12:50:00,79.0,53.3,30.20,WNW,296,0.0,0.0,41,0.00,,---,0.00,VWS V14.01,2013-07-12 16:50:00,
2013-07-12 12:55:00,79.6,51.8,30.19,SW,215,0.0,0.0,38,0.00,,---,0.00,VWS V14.01,2013-07-12 16:55:00,
2013-07-12 13:00:00,79.6,54.5,30.19,South,169,0.0,0.0,42,0.00,,---,0.00,VWS V14.01,2013-07-12 17:00:00,
2013-07-12 13:05:00,79.4,52.3,30.19,WSW,242,0.0,0.0,39,0.00,,---,0.00,VWS V14.01,2013-07-12 17:05:00,
2013-07-12 13:10:00,79.2,50.7,30.19,NNW,329,0.0,0.0,37,0.00,,---,0.00,VWS V14.01,2013-07-12 17:10:00,
2013-07-12 13:15:00,78.8,47.3,30.19,WNW,294,0.0,0.0,33,0.00,,---,0.00,VWS V14.01,2013-07-12 17:15:00,
2013-07-12 13:20:00,79.2,45.1,30.19,SW,234,0.0,0.0,30,0.00,,---,0.00,VWS V14.01,2013-07-12 17:20:00,
2013-07-12 13:26:00,79.8,46.5,30.19,West,273,0.0,0.0,31,0.00,,---,0.00,VWS V14.01,2013-07-12 17:26:00,
2013-07-12 13:31:00,79.6,48.0,30.18,NW,305,0.0,0.0,33,0.02,,---,0.02,VWS V14.01,2013-07-12 17:31:00,
2013-07-12 13:36:00,79.4,47.8,30.18,NW,322,0.0,0.0,33,0.03,,---,0.03,VWS V14.01,2013-07-12 17:36:00,
2013-07-12 13:41:00,79.6,46.3,30.18,WSW,251,0.0,0.0,31,0.04,,---,0.04,VWS V14.01,2013-07-12 17:41:00,
2013-07-12 13:46:00,79.9,51.3,30.18,West,270,0.0,0.0,37,0.04,,---,0.04,VWS V14.01,2013-07-12 17:46:00,
2013-07-12 13:52:00,80.3,51.7,30.18,NNE,24,0.0,0.0,37,0.05,,---,0.05,VWS V14.01,2013-07-12 17:52:00,
2013-07-12 13:57:00,80.5,54.0,30.18,West,271,0.0,0.0,40,0.05,,---,0.05,VWS V14.01,2013-07-12 17:57:00,
2013-07-12 14:02:00,80.9,53.7,30.17,West,267,0.0,0.0,39,0.05,,---,0.05,VWS V14.01,2013-07-12 18:02:00,
2013-07-12 14:07:00,80.9,51.5,30.17,WSW,258,0.0,0.0,36,0.05,,---,0.05,VWS V14.01,2013-07-12 18:07:00,
2013-07-12 14:12:00,81.4,51.9,30.17,SSW,194,0.0,0.0,36,0.06,,---,0.06,VWS V14.01,2013-07-12 18:12:00,
2013-07-12 14:17:00,81.4,55.5,30.17,SSE,148,0.0,0.0,41,0.06,,---,0.06,VWS V14.01,2013-07-12 18:17:00,
2013-07-12 14:22:00,81.4,49.6,30.17,NW,306,0.0,0.0,33,0.06,,---,0.06,VWS V14.01,2013-07-12 18:22:00,
2013-07-12 14:27:00,81.6,50.5,30.17,SSE,147,0.0,0.0,34,0.06,,---,0.06,VWS V14.01,2013-07-12 18:27:00,
2013-07-12 14:32:00,81.8,52.3,30.16,NW,317,0.0,0.0,36,0.04,,---,0.06,VWS V14.01,2013-07-12 18:32:00,
2013-07-12 14:37:00,82.0,52.4,30.16,West,263,0.0,0.0,36,0.04,,---,0.06,VWS V14.01,2013-07-12 18:37:00,
2013-07-12 14:42:00,82.2,51.1,30.16,SW,236,0.0,0.0,34,0.02,,---,0.06,VWS V14.01,2013-07-12 18:42:00,
2013-07-12 14:47:00,82.0,50.1,30.16,SSW,194,0.0,0.0,33,0.02,,---,0.06,VWS V14.01,2013-07-12 18:47:00,
2013-07-12 14:52:00,82.2,49.4,30.16,WSW,243,0.0,0.0,32,0.01,,---,0.06,VWS V14.01,2013-07-12 18:52:00,
2013-07-12 14:58:00,82.6,54.5,30.16,WSW,251,0.0,0.0,38,0.02,,---,0.07,VWS V14.01,2013-07-12 18:58:00,
2013-07-12 15:03:00,82.6,52.2,30.16,NW,314,0.0,0.0,35,0.02,,---,0.07,VWS V14.01,2013-07-12 19:03:00,
2013-07-12 15:08:00,82.6,53.0,30.16,WSW,250,0.0,0.0,36,0.02,,---,0.07,VWS V14.01,2013-07-12 19:08:00,
2013-07-12 15:13:00,82.8,53.9,30.16,WSW,251,0.0,0.0,37,0.01,,---,0.07,VWS V14.01,2013-07-12 19:13:00,
2013-07-12 15:18:00,83.4,52.1,30.15,SSW,211,0.0,0.0,34,0.01,,---,0.07,VWS V14.01,2013-07-12 19:18:00,
2013-07-12 15:23:00,83.6,49.8,30.15,West,274,0.0,0.0,31,0.01,,---,0.07,VWS V14.01,2013-07-12 19:23:00,
2013-07-12 15:28:00,83.4,53.7,30.15,WSW,257,0.0,0.0,36,0.01,,---,0.07,VWS V14.01,2013-07-12 19:28:00,
2013-07-12 15:33:00,83.8,51.7,30.14,NNW,347,0.0,0.0,33,0.01,,---,0.07,VWS V14.01,2013-07-12 19:33:00,
2013-07-12 15:38:00,84.1,53.5,30.14,SSW,209,0.0,0.0,35,0.01,,---,0.07,VWS V14.01,2013-07-12 19:38:00,
2013-07-12 15:44:00,84.3,51.3,30.14,West,272,0.0,0.0,32,0.01,,---,0.07,VWS V14.01,2013-07-12 19:44:00,
2013-07-12 15:49:00,84.1,51.9,30.15,WNW,292,0.0,0.0,33,0.01,,---,0.07,VWS V14.01,2013-07-12 19:49:00,
2013-07-12 15:54:00,84.5,50.6,30.14,SSW,204,0.0,0.0,31,0.01,,---,0.07,VWS V14.01,2013-07-12 19:54:00,
2013-07-12 15:59:00,84.7,50.8,30.14,West,271,0.0,0.0,31,0.01,,---,0.07,VWS V14.01,2013-07-12 19:59:00,
2013-07-12 16:04:00,84.5,53.1,30.14,West,271,0.0,0.0,34,0.00,,---,0.07,VWS V14.01,2013-07-12 20:04:00,
2013-07-12 16:09:00,84.5,53.9,30.14,North,355,0.0,0.0,35,0.00,,---,0.07,VWS V14.01,2013-07-12 20:09:00,
2013-07-12 16:14:00,83.4,56.6,30.15,NNE,26,0.0,0.0,40,0.00,,---,0.07,VWS V14.01,2013-07-12 20:14:00,
2013-07-12 16:19:00,81.6,57.0,30.15,NE,36,0.0,0.0,43,0.00,,---,0.07,VWS V14.01,2013-07-12 20:19:00,
2013-07-12 16:24:00,80.7,58.0,30.15,NNE,30,0.0,0.0,46,0.00,,---,0.07,VWS V14.01,2013-07-12 20:24:00,
2013-07-12 16:29:00,79.9,58.5,30.15,NNE,22,0.0,0.0,48,0.00,,---,0.07,VWS V14.01,2013-07-12 20:29:00,
2013-07-12 16:34:00,79.6,58.2,30.15,NNE,15,0.0,0.0,48,0.00,,---,0.07,VWS V14.01,2013-07-12 20:34:00,
2013-07-12 16:40:00,79.8,57.8,30.15,North,360,0.0,0.0,47,0.00,,---,0.07,VWS V14.01,2013-07-12 20:40:00,
2013-07-12 16:45:00,79.6,58.8,30.14,North,5,0.0,0.0,49,0.00,,---,0.07,VWS V14.01,2013-07-12 20:45:00,
2013-07-12 16:50:00,79.8,58.4,30.15,ENE,65,0.0,0.0,48,0.00,,---,0.07,VWS V14.01,2013-07-12 20:50:00,
2013-07-12 16:55:00,79.6,58.2,30.14,NNE,24,0.0,0.0,48,0.00,,---,0.07,VWS V14.01,2013-07-12 20:55:00,
2013-07-12 17:00:00,79.2,55.4,30.14,NNE,28,0.0,0.0,44,0.00,,---,0.07,VWS V14.01,2013-07-12 21:00:00,
2013-07-12 17:05:00,79.2,56.0,30.14,NE,39,0.0,0.0,45,0.00,,---,0.07,VWS V14.01,2013-07-12 21:05:00,
2013-07-12 17:10:00,79.6,58.2,30.14,North,355,0.0,0.0,48,0.01,,---,0.08,VWS V14.01,2013-07-12 21:10:00,
2013-07-12 17:15:00,79.8,57.2,30.14,ENE,59,0.0,0.0,46,0.01,,---,0.08,VWS V14.01,2013-07-12 21:15:00,
2013-07-12 17:20:00,79.6,55.2,30.14,NE,42,0.0,0.0,43,0.01,,---,0.08,VWS V14.01,2013-07-12 21:20:00,
2013-07-12 17:25:00,79.6,57.0,30.14,NNE,18,0.0,0.0,46,0.01,,---,0.08,VWS V14.01,2013-07-12 21:25:00,
2013-07-12 17:30:00,79.9,56.7,30.14,NE,38,0.0,0.0,45,0.01,,---,0.08,VWS V14.01,2013-07-12 21:30:00,
2013-07-12 17:35:00,79.8,56.6,30.14,NE,46,0.0,0.0,45,0.01,,---,0.08,VWS V14.01,2013-07-12 21:35:00,
2013-07-12 17:41:00,79.8,58.4,30.15,NE,37,0.0,0.0,48,0.01,,---,0.08,VWS V14.01,2013-07-12 21:41:00,
2013-07-12 17:46:00,79.8,59.5,30.14,NE,38,0.0,0.0,50,0.01,,---,0.08,VWS V14.01,2013-07-12 21:46:00,
2013-07-12 17:51:00,80.1,57.5,30.14,NE,45,0.0,0.0,46,0.01,,---,0.08,VWS V14.01,2013-07-12 21:51:00,
2013-07-12 17:56:00,80.1,59.2,30.14,NNE,28,0.0,0.0,49,0.01,,---,0.08,VWS V14.01,2013-07-12 21:56:00,
2013-07-12 18:01:00,79.9,57.3,30.13,NE,38,0.0,0.0,46,0.01,,---,0.08,VWS V14.01,2013-07-12 22:01:00,
2013-07-12 18:07:00,79.9,59.0,30.13,North,10,0.0,0.0,49,0.01,,---,0.08,VWS V14.01,2013-07-12 22:07:00,
2013-07-12 18:12:00,79.8,58.4,30.13,NNE,32,0.0,0.0,48,0.00,,---,0.08,VWS V14.01,2013-07-12 22:12:00,
2013-07-12 18:17:00,79.6,57.0,30.13,NE,47,0.0,0.0,46,0.00,,---,0.08,VWS V14.01,2013-07-12 22:17:00,
2013-07-12 18:22:00,79.4,58.0,30.12,NE,42,0.0,0.0,48,0.00,,---,0.08,VWS V14.01,2013-07-12 22:22:00,
2013-07-12 18:27:00,79.6,56.4,30.13,NNE,31,0.0,0.0,45,0.00,,---,0.08,VWS V14.01,2013-07-12 22:27:00,
2013-07-12 18:32:00,79.8,56.0,30.12,North,360,0.0,0.0,44,0.00,,---,0.08,VWS V14.01,2013-07-12 22:32:00,
2013-07-12 18:37:00,79.8,56.0,30.12,North,5,0.0,0.0,44,0.00,,---,0.08,VWS V14.01,2013-07-12 22:37:00,
2013-07-12 18:42:00,79.8,56.6,30.13,NNE,13,0.0,0.0,45,0.00,,---,0.08,VWS V14.01,2013-07-12 22:42:00,
2013-07-12 18:47:00,79.6,58.2,30.12,North,360,0.0,0.0,48,0.00,,---,0.08,VWS V14.01,2013-07-12 22:47:00,
2013-07-12 18:53:00,79.4,57.4,30.13,NNE,27,0.0,0.0,47,0.00,,---,0.08,VWS V14.01,2013-07-12 22:53:00,
2013-07-12 18:58:00,79.2,55.4,30.13,NNE,30,0.0,0.0,44,0.00,,---,0.08,VWS V14.01,2013-07-12 22:58:00,
2013-07-12 19:03:00,79.0,56.5,30.13,NE,55,0.0,0.0,46,0.00,,---,0.08,VWS V14.01,2013-07-12 23:03:00,
2013-07-12 19:08:00,78.8,56.3,30.13,NNE,32,0.0,0.0,46,0.00,,---,0.08,VWS V14.01,2013-07-12 23:08:00,
2013-07-12 19:13:00,78.6,55.5,30.13,NE,38,0.0,0.0,45,0.00,,---,0.08,VWS V14.01,2013-07-12 23:13:00,
2013-07-12 19:19:00,78.3,56.4,30.13,NE,34,0.0,0.0,47,0.00,,---,0.08,VWS V14.01,2013-07-12 23:19:00,
2013-07-12 19:24:00,78.3,57.0,30.13,NE,36,0.0,0.0,48,0.00,,---,0.08,VWS V14.01,2013-07-12 23:24:00,
2013-07-12 19:29:00,78.5,57.2,30.13,NNE,32,0.0,0.0,48,0.00,,---,0.08,VWS V14.01,2013-07-12 23:29:00,
2013-07-12 19:34:00,78.5,58.3,30.13,NNE,22,0.0,0.0,50,0.00,,---,0.08,VWS V14.01,2013-07-12 23:34:00,
2013-07-12 19:39:00,78.6,58.4,30.13,North,355,0.0,0.0,50,0.00,,---,0.08,VWS V14.01,2013-07-12 23:39:00,
2013-07-12 19:44:00,78.5,58.9,30.13,North,11,0.0,0.0,51,0.00,,---,0.08,VWS V14.01,2013-07-12 23:44:00,
2013-07-12 19:49:00,78.1,59.1,30.13,NNE,17,0.0,0.0,52,0.00,,---,0.08,VWS V14.01,2013-07-12 23:49:00,
2013-07-12 19:54:00,77.7,58.2,30.12,NE,38,0.0,0.0,51,0.00,,---,0.08,VWS V14.01,2013-07-12 23:54:00,
2013-07-12 19:59:00,77.2,58.8,30.12,NE,41,0.0,0.0,53,0.00,,---,0.08,VWS V14.01,2013-07-12 23:59:00,
2013-07-12 20:04:00,76.8,58.4,30.13,NNE,27,0.0,0.0,53,0.00,,---,0.08,VWS V14.01,2013-07-13 00:04:00,
2013-07-12 20:09:00,76.5,59.2,30.13,NE,38,0.0,0.0,55,0.00,,---,0.08,VWS V14.01,2013-07-13 00:09:00,
2013-07-12 20:14:00,76.3,59.5,30.13,NE,38,0.0,0.0,56,0.00,,---,0.08,VWS V14.01,2013-07-13 00:14:00,
2013-07-12 20:19:00,75.8,60.0,30.13,NNE,20,0.0,0.0,58,0.00,,---,0.08,VWS V14.01,2013-07-13 00:19:00,
2013-07-12 20:24:00,75.1,60.3,30.13,NE,47,0.0,0.0,60,0.00,,---,0.08,VWS V14.01,2013-07-13 00:24:00,
2013-07-12 20:30:00,74.6,60.7,30.13,NNE,13,0.0,0.0,62,0.00,,---,0.08,VWS V14.01,2013-07-13 00:30:00,
2013-07-12 20:35:00,73.9,60.1,30.13,NNE,32,0.0,0.0,62,0.00,,---,0.08,VWS V14.01,2013-07-13 00:35:00,
2013-07-12 20:40:00,73.3,60.4,30.14,NE,52,0.0,0.0,64,0.00,,---,0.08,VWS V14.01,2013-07-13 00:40:00,
2013-07-12 20:45:00,72.8,60.4,30.14,NE,47,0.0,0.0,65,0.00,,---,0.08,VWS V14.01,2013-07-13 00:45:00,
2013-07-12 20:50:00,72.5,60.1,30.13,NE,47,0.0,0.0,65,0.00,,---,0.08,VWS V14.01,2013-07-13 00:50:00,
2013-07-12 20:55:00,72.0,60.0,30.13,NE,47,0.0,0.0,66,0.00,,---,0.08,VWS V14.01,2013-07-13 00:55:00,
2013-07-12 21:00:00,71.6,60.1,30.13,NE,47,0.0,0.0,67,0.00,,---,0.08,VWS V14.01,2013-07-13 01:00:00,
2013-07-12 21:05:00,71.3,60.2,30.13,NE,47,0.0,0.0,68,0.00,,---,0.08,VWS V14.01,2013-07-13 01:05:00,
2013-07-12 21:10:00,71.1,60.4,30.13,NE,47,0.0,0.0,69,0.00,,---,0.08,VWS V14.01,2013-07-13 01:10:00,
2013-07-12 21:15:00,70.8,60.5,30.13,NE,47,0.0,0.0,70,0.00,,---,0.08,VWS V14.01,2013-07-13 01:15:00,
2013-07-12 21:21:00,70.4,60.2,30.13,NE,47,0.0,0.0,70,0.00,,---,0.08,VWS V14.01,2013-07-13 01:21:00,
2013-07-12 21:26:00,70.1,59.9,30.14,NE,47,0.0,0.0,70,0.00,,---,0.08,VWS V14.01,2013-07-13 01:26:00,
2013-07-12 21:31:00,69.6,60.2,30.14,NE,47,0.0,0.0,72,0.00,,---,0.08,VWS V14.01,2013-07-13 01:31:00,
2013-07-12 21:36:00,69.3,59.9,30.14,NE,47,0.0,0.0,72,0.00,,---,0.08,VWS V14.01,2013-07-13 01:36:00,
2013-07-12 21:41:00,68.8,59.4,30.14,NE,47,0.0,0.0,72,0.00,,---,0.08,VWS V14.01,2013-07-13 01:41:00,
2013-07-12 21:46:00,68.4,59.8,30.14,NE,47,0.0,0.0,74,0.00,,---,0.08,VWS V14.01,2013-07-13 01:46:00,
2013-07-12 21:51:00,67.9,59.7,30.14,NE,47,0.0,0.0,75,0.00,,---,0.08,VWS V14.01,2013-07-13 01:51:00,
2013-07-12 21:56:00,67.4,59.2,30.14,NE,47,0.0,0.0,75,0.00,,---,0.08,VWS V14.01,2013-07-13 01:56:00,
2013-07-12 22:01:00,67.1,59.3,30.15,NE,47,0.0,0.0,76,0.00,,---,0.08,VWS V14.01,2013-07-13 02:01:00,
2013-07-12 22:06:00,66.6,59.9,30.15,NE,47,0.0,0.0,79,0.00,,---,0.08,VWS V14.01,2013-07-13 02:06:00,
2013-07-12 22:12:00,66.3,59.6,30.15,NE,47,0.0,0.0,79,0.00,,---,0.08,VWS V14.01,2013-07-13 02:12:00,
2013-07-12 22:17:00,66.0,59.7,30.15,NE,47,0.0,0.0,80,0.00,,---,0.08,VWS V14.01,2013-07-13 02:17:00,
2013-07-12 22:22:00,65.5,59.5,30.15,NE,47,0.0,0.0,81,0.00,,---,0.08,VWS V14.01,2013-07-13 02:22:00,
2013-07-12 22:27:00,65.2,59.6,30.15,NE,47,0.0,0.0,82,0.00,,---,0.08,VWS V14.01,2013-07-13 02:27:00,
2013-07-12 22:32:00,64.8,59.2,30.15,NE,47,0.0,0.0,82,0.00,,---,0.08,VWS V14.01,2013-07-13 02:32:00,
2013-07-12 22:37:00,64.5,58.9,30.15,NE,47,0.0,0.0,82,0.00,,---,0.08,VWS V14.01,2013-07-13 02:37:00,
2013-07-12 22:42:00,64.2,59.3,30.15,NE,47,0.0,0.0,84,0.00,,---,0.08,VWS V14.01,2013-07-13 02:42:00,
2013-07-12 22:47:00,63.9,59.3,30.15,NE,47,0.0,0.0,85,0.00,,---,0.08,VWS V14.01,2013-07-13 02:47:00,
2013-07-12 22:53:00,63.5,59.2,30.15,NE,47,0.0,0.0,86,0.00,,---,0.08,VWS V14.01,2013-07-13 02:53:00,
2013-07-12 22:58:00,63.2,59.0,30.15,NE,47,0.0,0.0,86,0.00,,---,0.08,VWS V14.01,2013-07-13 02:58:00,
2013-07-12 23:03:00,63.1,59.2,30.15,NE,47,0.0,0.0,87,0.00,,---,0.08,VWS V14.01,2013-07-13 03:03:00,
2013-07-12 23:08:00,62.7,58.8,30.15,NE,47,0.0,0.0,87,0.00,,---,0.08,VWS V14.01,2013-07-13 03:08:00,
2013-07-12 23:13:00,62.6,58.7,30.15,NE,47,0.0,0.0,87,0.00,,---,0.08,VWS V14.01,2013-07-13 03:13:00,
2013-07-12 23:18:00,62.3,58.7,30.15,NE,47,0.0,0.0,88,0.00,,---,0.08,VWS V14.01,2013-07-13 03:18:00,
2013-07-12 23:23:00,62.1,58.5,30.15,NE,47,0.0,0.0,88,0.00,,---,0.08,VWS V14.01,2013-07-13 03:23:00,
2013-07-12 23:28:00,62.0,58.7,30.15,NE,47,0.0,0.0,89,0.00,,---,0.08,VWS V14.01,2013-07-13 03:28:00,
2013-07-12 23:33:00,61.6,58.3,30.15,SSW,202,0.0,0.0,89,0.00,,---,0.08,VWS V14.01,2013-07-13 03:33:00,
2013-07-12 23:38:00,61.5,58.2,30.15,SSW,202,0.0,0.0,89,0.00,,---,0.08,VWS V14.01,2013-07-13 03:38:00,
2013-07-12 23:43:00,61.3,58.0,30.15,SSW,202,0.0,0.0,89,0.00,,---,0.08,VWS V14.01,2013-07-13 03:43:00,
2013-07-12 23:49:00,61.2,58.2,30.15,South,182,0.0,0.0,90,0.00,,---,0.08,VWS V14.01,2013-07-13 03:49:00,
2013-07-12 23:54:00,61.2,58.2,30.15,South,182,0.0,0.0,90,0.00,,---,0.08,VWS V14.01,2013-07-13 03:54:00,
2013-07-12 23:59:00,61.0,58.0,30.15,South,182,0.0,0.0,90,0.00,,---,0.08,VWS V14.01,2013-07-13 03:59:00,